sensor_id;sensor_type;location;lat;lon;timestamp;temperature;humidity
17529;DHT22;8882;53.192;8.184;2023-10-19T04:16:32;7.40;99.90
17529;DHT22;8882;53.192;8.184;2023-10-19T04:19:02;7.30;99.90
17529;DHT22;8882;53.192;8.184;2023-10-19T04:21:30;7.30;99.90
17529;DHT22;8882;53.192;8.184;2023-10-19T04:23:55;7.30;99.90
17529;DHT22;8882;53.192;8.184;2023-10-19T04:26:22;7.30;99.90
17529;DHT22;8882;53.192;8.184;2023-10-19T04:28:50;7.30;99.90
17529;DHT22;8882;53.192;8.184;2023-10-19T04:31:18;7.30;99.90
17529;DHT22;8882;53.192;8.184;2023-10-19T04:33:45;7.30;99.90
17529;DHT22;8882;53.192;8.184;2023-10-19T04:36:12;7.30;99.90
17529;DHT22;8882;53.192;8.184;2023-10-19T04:38:38;7.30;99.90
17529;DHT22;8882;53.192;8.184;2023-10-19T04:41:05;7.30;99.90
17529;DHT22;8882;53.192;8.184;2023-10-19T04:43:33;7.30;99.90
17529;DHT22;8882;53.192;8.184;2023-10-19T04:45:59;7.30;99.90
17529;DHT22;8882;53.192;8.184;2023-10-19T04:48:24;7.40;99.90
17529;DHT22;8882;53.192;8.184;2023-10-19T04:50:50;7.30;99.90
17529;DHT22;8882;53.192;8.184;2023-10-19T04:53:15;7.30;99.90
17529;DHT22;8882;53.192;8.184;2023-10-19T04:55:41;7.20;99.90
17529;DHT22;8882;53.192;8.184;2023-10-19T04:58:07;7.30;99.90
17529;DHT22;8882;53.192;8.184;2023-10-19T05:00:33;7.20;99.90
17529;DHT22;8882;53.192;8.184;2023-10-19T05:02:59;7.20;99.90
17529;DHT22;8882;53.192;8.184;2023-10-19T05:05:24;7.20;99.90
17529;DHT22;8882;53.192;8.184;2023-10-19T05:07:50;7.20;99.90
17529;DHT22;8882;53.192;8.184;2023-10-19T05:10:15;7.30;99.90
17529;DHT22;8882;53.192;8.184;2023-10-19T05:12:41;7.20;99.90
17529;DHT22;8882;53.192;8.184;2023-10-19T05:15:07;7.30;99.90
17529;DHT22;8882;53.192;8.184;2023-10-19T05:17:33;7.20;99.90
17529;DHT22;8882;53.192;8.184;2023-10-19T05:19:59;7.20;99.90
17529;DHT22;8882;53.192;8.184;2023-10-19T05:22:24;7.20;99.90
17529;DHT22;8882;53.192;8.184;2023-10-19T05:24:50;7.20;99.90
17529;DHT22;8882;53.192;8.184;2023-10-19T05:27:16;7.20;99.90
17529;DHT22;8882;53.192;8.184;2023-10-19T05:29:43;7.20;99.90
17529;DHT22;8882;53.192;8.184;2023-10-19T05:32:08;7.20;99.90
17529;DHT22;8882;53.192;8.184;2023-10-19T05:34:34;7.20;99.90
17529;DHT22;8882;53.192;8.184;2023-10-19T05:37:01;7.20;99.90
17529;DHT22;8882;53.192;8.184;2023-10-19T05:39:28;7.20;99.90
17529;DHT22;8882;53.192;8.184;2023-10-19T05:41:54;7.20;99.90
17529;DHT22;8882;53.192;8.184;2023-10-19T05:44:20;7.20;99.90
17529;DHT22;8882;53.192;8.184;2023-10-19T05:46:45;7.20;99.90
17529;DHT22;8882;53.192;8.184;2023-10-19T05:49:12;7.20;99.90
17529;DHT22;8882;53.192;8.184;2023-10-19T05:51:38;7.20;99.90
17529;DHT22;8882;53.192;8.184;2023-10-19T05:54:04;7.20;99.90
17529;DHT22;8882;53.192;8.184;2023-10-19T05:56:33;7.30;99.90
17529;DHT22;8882;53.192;8.184;2023-10-19T05:59:02;7.20;99.90
17529;DHT22;8882;53.192;8.184;2023-10-19T06:01:28;7.20;99.90
17529;DHT22;8882;53.192;8.184;2023-10-19T06:03:53;7.10;99.90
17529;DHT22;8882;53.192;8.184;2023-10-19T06:06:19;7.10;99.90
17529;DHT22;8882;53.192;8.184;2023-10-19T06:08:45;7.10;99.90
17529;DHT22;8882;53.192;8.184;2023-10-19T06:11:11;7.00;99.90
17529;DHT22;8882;53.192;8.184;2023-10-19T06:13:36;7.00;99.90
17529;DHT22;8882;53.192;8.184;2023-10-19T06:16:02;7.00;99.90
17529;DHT22;8882;53.192;8.184;2023-10-19T06:18:28;7.00;99.90
17529;DHT22;8882;53.192;8.184;2023-10-19T06:20:54;7.00;99.90
17529;DHT22;8882;53.192;8.184;2023-10-19T06:23:20;7.00;99.90
17529;DHT22;8882;53.192;8.184;2023-10-19T06:25:46;7.00;99.90
17529;DHT22;8882;53.192;8.184;2023-10-19T06:28:12;7.00;99.90
17529;DHT22;8882;53.192;8.184;2023-10-19T06:30:38;7.00;99.90
17529;DHT22;8882;53.192;8.184;2023-10-19T06:33:05;7.00;99.90
17529;DHT22;8882;53.192;8.184;2023-10-19T06:35:32;7.00;99.90
17529;DHT22;8882;53.192;8.184;2023-10-19T06:37:58;7.00;99.90
17529;DHT22;8882;53.192;8.184;2023-10-19T06:40:24;7.00;99.90
17529;DHT22;8882;53.192;8.184;2023-10-19T06:42:54;7.00;99.90
17529;DHT22;8882;53.192;8.184;2023-10-19T06:45:21;7.00;99.90
17529;DHT22;8882;53.192;8.184;2023-10-19T06:47:48;7.00;99.90
17529;DHT22;8882;53.192;8.184;2023-10-19T06:50:16;7.00;99.90
17529;DHT22;8882;53.192;8.184;2023-10-19T06:52:46;7.00;99.90
17529;DHT22;8882;53.192;8.184;2023-10-19T06:55:13;7.00;99.90
17529;DHT22;8882;53.192;8.184;2023-10-19T06:57:43;7.00;99.90
17529;DHT22;8882;53.192;8.184;2023-10-19T07:00:11;7.00;99.90
17529;DHT22;8882;53.192;8.184;2023-10-19T07:02:40;7.00;99.90
17529;DHT22;8882;53.192;8.184;2023-10-19T07:05:07;7.00;99.90
17529;DHT22;8882;53.192;8.184;2023-10-19T07:07:36;7.00;99.90
17529;DHT22;8882;53.192;8.184;2023-10-19T07:10:01;7.00;99.90
17529;DHT22;8882;53.192;8.184;2023-10-19T07:12:28;7.00;99.90
17529;DHT22;8882;53.192;8.184;2023-10-19T07:14:54;7.00;99.90
17529;DHT22;8882;53.192;8.184;2023-10-19T07:17:19;7.00;99.90
17529;DHT22;8882;53.192;8.184;2023-10-19T07:19:45;7.10;99.90
17529;DHT22;8882;53.192;8.184;2023-10-19T07:22:14;7.10;99.90
17529;DHT22;8882;53.192;8.184;2023-10-19T07:24:40;7.10;99.90
17529;DHT22;8882;53.192;8.184;2023-10-19T07:27:06;7.10;99.90
17529;DHT22;8882;53.192;8.184;2023-10-19T07:29:33;7.10;99.90
17529;DHT22;8882;53.192;8.184;2023-10-19T07:32:02;7.10;99.90
17529;DHT22;8882;53.192;8.184;2023-10-19T07:34:31;7.10;99.90
17529;DHT22;8882;53.192;8.184;2023-10-19T07:36:58;7.10;99.90
17529;DHT22;8882;53.192;8.184;2023-10-19T07:39:25;7.10;99.90
17529;DHT22;8882;53.192;8.184;2023-10-19T07:41:52;7.10;99.90
17529;DHT22;8882;53.192;8.184;2023-10-19T07:44:18;7.10;99.90
17529;DHT22;8882;53.192;8.184;2023-10-19T07:46:43;7.10;99.90
17529;DHT22;8882;53.192;8.184;2023-10-19T07:49:09;7.10;99.90
17529;DHT22;8882;53.192;8.184;2023-10-19T07:51:41;7.10;99.90
17529;DHT22;8882;53.192;8.184;2023-10-19T07:54:06;7.10;99.90
17529;DHT22;8882;53.192;8.184;2023-10-19T07:56:32;7.10;99.90
17529;DHT22;8882;53.192;8.184;2023-10-19T07:58:59;7.20;99.90
17529;DHT22;8882;53.192;8.184;2023-10-19T08:01:24;7.20;99.90
17529;DHT22;8882;53.192;8.184;2023-10-19T08:03:50;7.20;99.90
17529;DHT22;8882;53.192;8.184;2023-10-19T08:06:17;7.20;99.90
17529;DHT22;8882;53.192;8.184;2023-10-19T08:08:42;7.20;99.90
17529;DHT22;8882;53.192;8.184;2023-10-19T08:11:08;7.20;99.90
17529;DHT22;8882;53.192;8.184;2023-10-19T08:13:33;7.20;99.90
17529;DHT22;8882;53.192;8.184;2023-10-19T08:15:59;7.30;99.90
17529;DHT22;8882;53.192;8.184;2023-10-19T08:18:24;7.20;99.90
17529;DHT22;8882;53.192;8.184;2023-10-19T08:20:50;7.20;99.90
17529;DHT22;8882;53.192;8.184;2023-10-19T08:23:16;7.30;99.90
17529;DHT22;8882;53.192;8.184;2023-10-19T08:25:48;7.30;99.90
17529;DHT22;8882;53.192;8.184;2023-10-19T08:28:16;7.30;99.90
17529;DHT22;8882;53.192;8.184;2023-10-19T08:30:42;7.30;99.90
17529;DHT22;8882;53.192;8.184;2023-10-19T08:33:10;7.30;99.90
17529;DHT22;8882;53.192;8.184;2023-10-19T08:35:39;7.30;99.90
17529;DHT22;8882;53.192;8.184;2023-10-19T08:38:04;7.30;99.90
17529;DHT22;8882;53.192;8.184;2023-10-19T08:40:36;7.30;99.90
17529;DHT22;8882;53.192;8.184;2023-10-19T08:43:02;7.30;99.90
17529;DHT22;8882;53.192;8.184;2023-10-19T08:45:29;7.30;99.90
17529;DHT22;8882;53.192;8.184;2023-10-19T08:47:56;7.30;99.90
17529;DHT22;8882;53.192;8.184;2023-10-19T08:50:24;7.30;99.90
17529;DHT22;8882;53.192;8.184;2023-10-19T08:52:53;7.30;99.90
17529;DHT22;8882;53.192;8.184;2023-10-19T08:55:19;7.40;99.90
17529;DHT22;8882;53.192;8.184;2023-10-19T08:57:48;7.40;99.90
17529;DHT22;8882;53.192;8.184;2023-10-19T09:00:15;7.40;99.90
17529;DHT22;8882;53.192;8.184;2023-10-19T09:02:47;7.40;99.90
17529;DHT22;8882;53.192;8.184;2023-10-19T09:05:13;7.40;99.90
17529;DHT22;8882;53.192;8.184;2023-10-19T09:07:47;7.40;99.90
17529;DHT22;8882;53.192;8.184;2023-10-19T09:10:18;7.40;99.90
17529;DHT22;8882;53.192;8.184;2023-10-19T09:12:44;7.50;99.90
17529;DHT22;8882;53.192;8.184;2023-10-19T09:15:22;7.40;99.90
17529;DHT22;8882;53.192;8.184;2023-10-19T09:17:48;7.40;99.90
17529;DHT22;8882;53.192;8.184;2023-10-19T09:20:14;7.40;99.90
17529;DHT22;8882;53.192;8.184;2023-10-19T09:22:55;7.40;99.90
17529;DHT22;8882;53.192;8.184;2023-10-19T09:25:22;7.40;99.90
17529;DHT22;8882;53.192;8.184;2023-10-19T09:27:48;7.50;99.90
17529;DHT22;8882;53.192;8.184;2023-10-19T09:30:15;7.40;99.90
17529;DHT22;8882;53.192;8.184;2023-10-19T09:32:48;7.40;99.90
17529;DHT22;8882;53.192;8.184;2023-10-19T09:35:16;7.40;99.90
17529;DHT22;8882;53.192;8.184;2023-10-19T09:37:42;7.50;99.90
17529;DHT22;8882;53.192;8.184;2023-10-19T09:40:11;7.50;99.90
17529;DHT22;8882;53.192;8.184;2023-10-19T09:42:40;7.50;99.90
17529;DHT22;8882;53.192;8.184;2023-10-19T09:45:11;7.50;99.90
17529;DHT22;8882;53.192;8.184;2023-10-19T09:47:41;7.50;99.90
17529;DHT22;8882;53.192;8.184;2023-10-19T09:50:07;7.50;99.90
17529;DHT22;8882;53.192;8.184;2023-10-19T09:52:34;7.50;99.90
17529;DHT22;8882;53.192;8.184;2023-10-19T09:55:24;7.50;99.90
17529;DHT22;8882;53.192;8.184;2023-10-19T09:58:06;7.50;99.90
17529;DHT22;8882;53.192;8.184;2023-10-19T10:00:34;7.50;99.90
17529;DHT22;8882;53.192;8.184;2023-10-19T10:03:01;7.50;99.90
17529;DHT22;8882;53.192;8.184;2023-10-19T10:10:50;7.60;99.90
17529;DHT22;8882;53.192;8.184;2023-10-19T10:15:56;7.60;99.90
17529;DHT22;8882;53.192;8.184;2023-10-19T10:18:34;7.60;99.90
17529;DHT22;8882;53.192;8.184;2023-10-19T10:23:42;7.60;99.90
17529;DHT22;8882;53.192;8.184;2023-10-19T10:26:09;7.60;99.90
17529;DHT22;8882;53.192;8.184;2023-10-19T10:28:35;7.60;99.90
17529;DHT22;8882;53.192;8.184;2023-10-19T10:31:11;7.60;99.90
17529;DHT22;8882;53.192;8.184;2023-10-19T10:33:43;7.60;99.90
17529;DHT22;8882;53.192;8.184;2023-10-19T10:36:11;7.60;99.90
17529;DHT22;8882;53.192;8.184;2023-10-19T10:38:37;7.60;99.90
17529;DHT22;8882;53.192;8.184;2023-10-19T10:41:03;7.70;99.90
17529;DHT22;8882;53.192;8.184;2023-10-19T10:43:29;7.70;99.90
17529;DHT22;8882;53.192;8.184;2023-10-19T10:46:07;7.70;99.90
17529;DHT22;8882;53.192;8.184;2023-10-19T10:48:33;7.70;99.90
17529;DHT22;8882;53.192;8.184;2023-10-19T10:51:01;7.70;99.90
17529;DHT22;8882;53.192;8.184;2023-10-19T10:53:26;7.70;99.90
17529;DHT22;8882;53.192;8.184;2023-10-19T10:55:53;7.70;99.90
17529;DHT22;8882;53.192;8.184;2023-10-19T10:58:19;7.80;99.90
17529;DHT22;8882;53.192;8.184;2023-10-19T11:00:46;7.80;99.90
17529;DHT22;8882;53.192;8.184;2023-10-19T11:03:12;7.80;99.90
17529;DHT22;8882;53.192;8.184;2023-10-19T11:05:39;7.80;99.90
17529;DHT22;8882;53.192;8.184;2023-10-19T11:08:13;7.80;99.90
17529;DHT22;8882;53.192;8.184;2023-10-19T11:10:40;7.80;99.90
17529;DHT22;8882;53.192;8.184;2023-10-19T11:13:13;7.80;99.90
17529;DHT22;8882;53.192;8.184;2023-10-19T11:15:47;7.70;99.90
17529;DHT22;8882;53.192;8.184;2023-10-19T11:18:28;7.70;99.90
17529;DHT22;8882;53.192;8.184;2023-10-19T11:20:57;7.80;99.90
17529;DHT22;8882;53.192;8.184;2023-10-19T11:23:46;7.80;99.90
17529;DHT22;8882;53.192;8.184;2023-10-19T11:26:14;7.80;99.90
17529;DHT22;8882;53.192;8.184;2023-10-19T11:28:40;7.80;99.90
17529;DHT22;8882;53.192;8.184;2023-10-19T11:31:19;7.80;99.90
17529;DHT22;8882;53.192;8.184;2023-10-19T11:33:47;7.80;99.90
17529;DHT22;8882;53.192;8.184;2023-10-19T11:36:17;7.80;99.90
17529;DHT22;8882;53.192;8.184;2023-10-19T11:38:44;7.80;99.90
17529;DHT22;8882;53.192;8.184;2023-10-19T11:41:11;7.80;99.90
17529;DHT22;8882;53.192;8.184;2023-10-19T11:43:42;7.80;99.90
17529;DHT22;8882;53.192;8.184;2023-10-19T11:46:08;7.80;99.90
17529;DHT22;8882;53.192;8.184;2023-10-19T11:48:35;7.80;99.90
17529;DHT22;8882;53.192;8.184;2023-10-19T11:51:04;7.80;99.90
17529;DHT22;8882;53.192;8.184;2023-10-19T11:53:34;7.80;99.90
17529;DHT22;8882;53.192;8.184;2023-10-19T11:56:06;7.80;99.90
17529;DHT22;8882;53.192;8.184;2023-10-19T11:58:35;7.80;99.90
17529;DHT22;8882;53.192;8.184;2023-10-19T12:01:01;7.80;99.90
17529;DHT22;8882;53.192;8.184;2023-10-19T12:03:47;7.80;99.90
17529;DHT22;8882;53.192;8.184;2023-10-19T12:06:13;7.80;99.90
17529;DHT22;8882;53.192;8.184;2023-10-19T12:08:44;7.70;99.90
17529;DHT22;8882;53.192;8.184;2023-10-19T12:11:10;7.70;99.90
17529;DHT22;8882;53.192;8.184;2023-10-19T12:13:43;7.70;99.90
17529;DHT22;8882;53.192;8.184;2023-10-19T12:16:12;7.70;99.90
17529;DHT22;8882;53.192;8.184;2023-10-19T12:18:40;7.70;99.90
17529;DHT22;8882;53.192;8.184;2023-10-19T12:21:08;7.70;99.90
17529;DHT22;8882;53.192;8.184;2023-10-19T12:23:43;7.70;99.90
17529;DHT22;8882;53.192;8.184;2023-10-19T12:26:09;7.70;99.90
17529;DHT22;8882;53.192;8.184;2023-10-19T12:28:38;7.70;99.90
17529;DHT22;8882;53.192;8.184;2023-10-19T12:31:04;7.70;99.90
17529;DHT22;8882;53.192;8.184;2023-10-19T12:33:37;7.70;99.90
17529;DHT22;8882;53.192;8.184;2023-10-19T12:36:05;7.70;99.90
17529;DHT22;8882;53.192;8.184;2023-10-19T12:38:57;7.80;99.90
17529;DHT22;8882;53.192;8.184;2023-10-19T12:41:23;7.70;99.90
17529;DHT22;8882;53.192;8.184;2023-10-19T12:43:53;7.70;99.90
17529;DHT22;8882;53.192;8.184;2023-10-19T12:46:26;7.70;99.90
17529;DHT22;8882;53.192;8.184;2023-10-19T12:48:53;7.70;99.90
17529;DHT22;8882;53.192;8.184;2023-10-19T12:51:21;7.70;99.90
17529;DHT22;8882;53.192;8.184;2023-10-19T12:53:53;7.70;99.90
17529;DHT22;8882;53.192;8.184;2023-10-19T12:56:23;7.70;99.90
17529;DHT22;8882;53.192;8.184;2023-10-19T12:58:49;7.70;99.90
17529;DHT22;8882;53.192;8.184;2023-10-19T13:01:15;7.70;99.90
17529;DHT22;8882;53.192;8.184;2023-10-19T13:03:48;7.70;99.90
17529;DHT22;8882;53.192;8.184;2023-10-19T13:06:15;7.70;99.90
17529;DHT22;8882;53.192;8.184;2023-10-19T13:08:41;7.70;99.90
17529;DHT22;8882;53.192;8.184;2023-10-19T13:11:07;7.70;99.90
17529;DHT22;8882;53.192;8.184;2023-10-19T13:13:33;7.70;99.90
17529;DHT22;8882;53.192;8.184;2023-10-19T13:16:02;7.70;99.90
17529;DHT22;8882;53.192;8.184;2023-10-19T13:18:31;7.70;99.90
17529;DHT22;8882;53.192;8.184;2023-10-19T13:21:00;7.70;99.90
17529;DHT22;8882;53.192;8.184;2023-10-19T13:23:30;7.70;99.90
17529;DHT22;8882;53.192;8.184;2023-10-19T13:25:58;7.70;99.90
17529;DHT22;8882;53.192;8.184;2023-10-19T13:28:43;7.70;99.90
17529;DHT22;8882;53.192;8.184;2023-10-19T13:31:09;7.70;99.90
17529;DHT22;8882;53.192;8.184;2023-10-19T13:33:34;7.60;99.90
17529;DHT22;8882;53.192;8.184;2023-10-19T13:36:00;7.70;99.90
17529;DHT22;8882;53.192;8.184;2023-10-19T13:38:26;7.70;99.90
17529;DHT22;8882;53.192;8.184;2023-10-19T13:40:51;7.70;99.90
17529;DHT22;8882;53.192;8.184;2023-10-19T13:43:18;7.70;99.90
17529;DHT22;8882;53.192;8.184;2023-10-19T13:45:46;7.70;99.90
17529;DHT22;8882;53.192;8.184;2023-10-19T13:48:13;7.70;99.90
17529;DHT22;8882;53.192;8.184;2023-10-19T13:50:47;7.70;99.90
17529;DHT22;8882;53.192;8.184;2023-10-19T13:53:18;7.70;99.90
17529;DHT22;8882;53.192;8.184;2023-10-19T13:55:44;7.60;99.90
17529;DHT22;8882;53.192;8.184;2023-10-19T13:58:10;7.60;99.90
17529;DHT22;8882;53.192;8.184;2023-10-19T14:00:36;7.60;99.90
17529;DHT22;8882;53.192;8.184;2023-10-19T14:03:05;7.70;99.90
17529;DHT22;8882;53.192;8.184;2023-10-19T14:05:41;7.60;99.90
17529;DHT22;8882;53.192;8.184;2023-10-19T14:08:08;7.70;99.90
17529;DHT22;8882;53.192;8.184;2023-10-19T14:10:35;7.60;99.90
17529;DHT22;8882;53.192;8.184;2023-10-19T14:13:00;7.60;99.90
17529;DHT22;8882;53.192;8.184;2023-10-19T14:15:26;7.70;99.90
17529;DHT22;8882;53.192;8.184;2023-10-19T14:17:55;7.60;99.90
17529;DHT22;8882;53.192;8.184;2023-10-19T14:20:21;7.60;99.90
17529;DHT22;8882;53.192;8.184;2023-10-19T14:22:51;7.60;99.90
17529;DHT22;8882;53.192;8.184;2023-10-19T14:25:18;7.60;99.90
17529;DHT22;8882;53.192;8.184;2023-10-19T14:27:46;7.60;99.90
17529;DHT22;8882;53.192;8.184;2023-10-19T14:30:15;7.60;99.90
17529;DHT22;8882;53.192;8.184;2023-10-19T14:32:42;7.60;99.90
17529;DHT22;8882;53.192;8.184;2023-10-19T14:35:11;7.60;99.90
17529;DHT22;8882;53.192;8.184;2023-10-19T14:37:39;7.60;99.90
17529;DHT22;8882;53.192;8.184;2023-10-19T14:40:10;7.50;99.90
17529;DHT22;8882;53.192;8.184;2023-10-19T14:42:40;7.60;99.90
17529;DHT22;8882;53.192;8.184;2023-10-19T14:45:08;7.60;99.90
17529;DHT22;8882;53.192;8.184;2023-10-19T14:47:38;7.60;99.90
17529;DHT22;8882;53.192;8.184;2023-10-19T14:50:07;7.60;99.90
17529;DHT22;8882;53.192;8.184;2023-10-19T14:52:32;7.60;99.90
17529;DHT22;8882;53.192;8.184;2023-10-19T14:54:58;7.60;99.90
17529;DHT22;8882;53.192;8.184;2023-10-19T14:57:25;7.50;99.90
17529;DHT22;8882;53.192;8.184;2023-10-19T14:59:51;7.50;99.90
17529;DHT22;8882;53.192;8.184;2023-10-19T15:02:16;7.50;99.90
17529;DHT22;8882;53.192;8.184;2023-10-19T15:04:45;7.50;99.90
17529;DHT22;8882;53.192;8.184;2023-10-19T15:07:11;7.50;99.90
17529;DHT22;8882;53.192;8.184;2023-10-19T15:09:37;7.60;99.90
17529;DHT22;8882;53.192;8.184;2023-10-19T15:12:03;7.60;99.90
17529;DHT22;8882;53.192;8.184;2023-10-19T15:14:29;7.60;99.90
17529;DHT22;8882;53.192;8.184;2023-10-19T15:16:54;7.50;99.90
17529;DHT22;8882;53.192;8.184;2023-10-19T15:19:19;7.50;99.90
17529;DHT22;8882;53.192;8.184;2023-10-19T15:21:46;7.50;99.90
17529;DHT22;8882;53.192;8.184;2023-10-19T15:24:11;7.50;99.90
17529;DHT22;8882;53.192;8.184;2023-10-19T15:26:41;7.50;99.90
17529;DHT22;8882;53.192;8.184;2023-10-19T15:29:08;7.60;99.90
17529;DHT22;8882;53.192;8.184;2023-10-19T15:31:34;7.50;99.90
17529;DHT22;8882;53.192;8.184;2023-10-19T15:34:00;7.60;99.90
17529;DHT22;8882;53.192;8.184;2023-10-19T15:36:25;7.60;99.90
17529;DHT22;8882;53.192;8.184;2023-10-19T15:38:51;7.60;99.90
17529;DHT22;8882;53.192;8.184;2023-10-19T15:41:17;7.50;99.90
17529;DHT22;8882;53.192;8.184;2023-10-19T15:43:43;7.60;99.90
17529;DHT22;8882;53.192;8.184;2023-10-19T15:46:08;7.60;99.90
17529;DHT22;8882;53.192;8.184;2023-10-19T15:48:38;7.50;99.90
17529;DHT22;8882;53.192;8.184;2023-10-19T15:51:05;7.50;99.90
17529;DHT22;8882;53.192;8.184;2023-10-19T15:53:33;7.50;99.90
17529;DHT22;8882;53.192;8.184;2023-10-19T15:56:00;7.50;99.90
17529;DHT22;8882;53.192;8.184;2023-10-19T15:58:25;7.50;99.90
17529;DHT22;8882;53.192;8.184;2023-10-19T16:00:51;7.50;99.90
17529;DHT22;8882;53.192;8.184;2023-10-19T16:03:17;7.50;99.90
17529;DHT22;8882;53.192;8.184;2023-10-19T16:05:42;7.50;99.90
17529;DHT22;8882;53.192;8.184;2023-10-19T16:08:07;7.50;99.90
17529;DHT22;8882;53.192;8.184;2023-10-19T16:10:33;7.50;99.90
17529;DHT22;8882;53.192;8.184;2023-10-19T16:12:58;7.50;99.90
17529;DHT22;8882;53.192;8.184;2023-10-19T16:15:24;7.50;99.90
17529;DHT22;8882;53.192;8.184;2023-10-19T16:17:49;7.60;99.90
17529;DHT22;8882;53.192;8.184;2023-10-19T16:20:16;7.60;99.90
17529;DHT22;8882;53.192;8.184;2023-10-19T16:22:42;7.50;99.90
17529;DHT22;8882;53.192;8.184;2023-10-19T16:25:07;7.60;99.90
17529;DHT22;8882;53.192;8.184;2023-10-19T16:27:33;7.60;99.90
17529;DHT22;8882;53.192;8.184;2023-10-19T16:29:59;7.60;99.90
17529;DHT22;8882;53.192;8.184;2023-10-19T16:32:25;7.70;99.90
17529;DHT22;8882;53.192;8.184;2023-10-19T16:34:53;7.70;99.90
17529;DHT22;8882;53.192;8.184;2023-10-19T16:37:19;7.60;99.90
17529;DHT22;8882;53.192;8.184;2023-10-19T16:39:44;7.60;99.90
17529;DHT22;8882;53.192;8.184;2023-10-19T16:42:11;7.60;99.90
17529;DHT22;8882;53.192;8.184;2023-10-19T16:44:37;7.60;99.90
17529;DHT22;8882;53.192;8.184;2023-10-19T16:47:02;7.60;99.90
17529;DHT22;8882;53.192;8.184;2023-10-19T16:49:29;7.60;99.90
17529;DHT22;8882;53.192;8.184;2023-10-19T16:52:00;7.60;99.90
17529;DHT22;8882;53.192;8.184;2023-10-19T16:54:25;7.60;99.90
17529;DHT22;8882;53.192;8.184;2023-10-19T16:56:51;7.60;99.90
17529;DHT22;8882;53.192;8.184;2023-10-19T16:59:16;7.60;99.90
17529;DHT22;8882;53.192;8.184;2023-10-19T17:01:43;7.60;99.90
17529;DHT22;8882;53.192;8.184;2023-10-19T17:04:09;7.60;99.90
17529;DHT22;8882;53.192;8.184;2023-10-19T17:06:35;7.60;99.90
17529;DHT22;8882;53.192;8.184;2023-10-19T17:09:14;7.60;99.90
17529;DHT22;8882;53.192;8.184;2023-10-19T17:11:47;7.60;99.90
17529;DHT22;8882;53.192;8.184;2023-10-19T17:14:13;7.60;99.90
17529;DHT22;8882;53.192;8.184;2023-10-19T17:16:38;7.60;99.90
17529;DHT22;8882;53.192;8.184;2023-10-19T17:19:04;7.60;99.90
17529;DHT22;8882;53.192;8.184;2023-10-19T17:21:30;7.60;99.90
17529;DHT22;8882;53.192;8.184;2023-10-19T17:23:56;7.60;99.90
17529;DHT22;8882;53.192;8.184;2023-10-19T17:26:23;7.60;99.90
17529;DHT22;8882;53.192;8.184;2023-10-19T17:28:48;7.60;99.90
17529;DHT22;8882;53.192;8.184;2023-10-19T17:31:16;7.60;99.90
17529;DHT22;8882;53.192;8.184;2023-10-19T17:33:42;7.60;99.90
17529;DHT22;8882;53.192;8.184;2023-10-19T17:36:10;7.60;99.90
17529;DHT22;8882;53.192;8.184;2023-10-19T17:38:36;7.60;99.90
17529;DHT22;8882;53.192;8.184;2023-10-19T17:41:01;7.60;99.90
17529;DHT22;8882;53.192;8.184;2023-10-19T17:43:27;7.60;99.90
17529;DHT22;8882;53.192;8.184;2023-10-19T17:45:52;7.60;99.90
17529;DHT22;8882;53.192;8.184;2023-10-19T17:48:19;7.50;99.90
17529;DHT22;8882;53.192;8.184;2023-10-19T17:50:44;7.50;99.90
17529;DHT22;8882;53.192;8.184;2023-10-19T17:53:10;7.50;99.90
17529;DHT22;8882;53.192;8.184;2023-10-19T17:55:36;7.60;99.90
17529;DHT22;8882;53.192;8.184;2023-10-19T17:58:02;7.50;99.90
17529;DHT22;8882;53.192;8.184;2023-10-19T18:00:30;7.60;99.90
17529;DHT22;8882;53.192;8.184;2023-10-19T18:02:55;7.60;99.90
17529;DHT22;8882;53.192;8.184;2023-10-19T18:05:21;7.50;99.90
17529;DHT22;8882;53.192;8.184;2023-10-19T18:07:49;7.60;99.90
17529;DHT22;8882;53.192;8.184;2023-10-19T18:10:18;7.50;99.90
17529;DHT22;8882;53.192;8.184;2023-10-19T18:12:43;7.50;99.90
17529;DHT22;8882;53.192;8.184;2023-10-19T18:15:10;7.50;99.90
17529;DHT22;8882;53.192;8.184;2023-10-19T18:17:36;7.50;99.90
17529;DHT22;8882;53.192;8.184;2023-10-19T18:20:03;7.50;99.90
17529;DHT22;8882;53.192;8.184;2023-10-19T18:22:35;7.50;99.90
17529;DHT22;8882;53.192;8.184;2023-10-19T18:25:01;7.50;99.90
17529;DHT22;8882;53.192;8.184;2023-10-19T18:27:28;7.50;99.90
17529;DHT22;8882;53.192;8.184;2023-10-19T18:29:54;7.50;99.90
17529;DHT22;8882;53.192;8.184;2023-10-19T18:32:19;7.50;99.90
17529;DHT22;8882;53.192;8.184;2023-10-19T18:34:45;7.50;99.90
17529;DHT22;8882;53.192;8.184;2023-10-19T18:37:10;7.50;99.90
17529;DHT22;8882;53.192;8.184;2023-10-19T18:39:36;7.50;99.90
17529;DHT22;8882;53.192;8.184;2023-10-19T18:42:01;7.50;99.90
17529;DHT22;8882;53.192;8.184;2023-10-19T18:44:28;7.50;99.90
17529;DHT22;8882;53.192;8.184;2023-10-19T18:46:54;7.60;99.90
17529;DHT22;8882;53.192;8.184;2023-10-19T18:49:19;7.60;99.90
17529;DHT22;8882;53.192;8.184;2023-10-19T18:51:45;7.50;99.90
17529;DHT22;8882;53.192;8.184;2023-10-19T18:54:10;7.50;99.90
17529;DHT22;8882;53.192;8.184;2023-10-19T18:56:36;7.50;99.90
17529;DHT22;8882;53.192;8.184;2023-10-19T18:59:03;7.50;99.90
17529;DHT22;8882;53.192;8.184;2023-10-19T19:01:28;7.50;99.90
17529;DHT22;8882;53.192;8.184;2023-10-19T19:03:54;7.50;99.90
17529;DHT22;8882;53.192;8.184;2023-10-19T19:06:21;7.50;99.90
17529;DHT22;8882;53.192;8.184;2023-10-19T19:08:47;7.50;99.90
17529;DHT22;8882;53.192;8.184;2023-10-19T19:11:14;7.50;99.90
17529;DHT22;8882;53.192;8.184;2023-10-19T19:13:41;7.40;99.90
17529;DHT22;8882;53.192;8.184;2023-10-19T19:16:07;7.50;99.90
17529;DHT22;8882;53.192;8.184;2023-10-19T19:18:33;7.50;99.90
17529;DHT22;8882;53.192;8.184;2023-10-19T19:20:59;7.40;99.90
17529;DHT22;8882;53.192;8.184;2023-10-19T19:23:29;7.40;99.90
17529;DHT22;8882;53.192;8.184;2023-10-19T19:25:55;7.40;99.90
17529;DHT22;8882;53.192;8.184;2023-10-19T19:28:21;7.40;99.90
17529;DHT22;8882;53.192;8.184;2023-10-19T19:30:46;7.40;99.90
17529;DHT22;8882;53.192;8.184;2023-10-19T19:33:13;7.40;99.90
17529;DHT22;8882;53.192;8.184;2023-10-19T19:35:39;7.40;99.90
17529;DHT22;8882;53.192;8.184;2023-10-19T19:38:05;7.40;99.90
17529;DHT22;8882;53.192;8.184;2023-10-19T19:40:30;7.40;99.90
17529;DHT22;8882;53.192;8.184;2023-10-19T19:42:57;7.40;99.90
17529;DHT22;8882;53.192;8.184;2023-10-19T19:45:22;7.40;99.90
17529;DHT22;8882;53.192;8.184;2023-10-19T19:47:48;7.40;99.90
17529;DHT22;8882;53.192;8.184;2023-10-19T19:50:17;7.40;99.90
17529;DHT22;8882;53.192;8.184;2023-10-19T19:52:43;7.40;99.90
17529;DHT22;8882;53.192;8.184;2023-10-19T19:55:09;7.40;99.90
17529;DHT22;8882;53.192;8.184;2023-10-19T19:57:39;7.40;99.90
17529;DHT22;8882;53.192;8.184;2023-10-19T20:00:06;7.50;99.90
17529;DHT22;8882;53.192;8.184;2023-10-19T20:02:42;7.40;99.90
17529;DHT22;8882;53.192;8.184;2023-10-19T20:05:15;7.40;99.90
17529;DHT22;8882;53.192;8.184;2023-10-19T20:07:43;7.40;99.90
17529;DHT22;8882;53.192;8.184;2023-10-19T20:10:09;7.40;99.90
17529;DHT22;8882;53.192;8.184;2023-10-19T20:12:36;7.40;99.90
17529;DHT22;8882;53.192;8.184;2023-10-19T20:15:03;7.40;99.90
17529;DHT22;8882;53.192;8.184;2023-10-19T20:17:28;7.40;99.90
17529;DHT22;8882;53.192;8.184;2023-10-19T20:19:54;7.40;99.90
17529;DHT22;8882;53.192;8.184;2023-10-19T20:22:19;7.40;99.90
17529;DHT22;8882;53.192;8.184;2023-10-19T20:24:45;7.40;99.90
17529;DHT22;8882;53.192;8.184;2023-10-19T20:27:10;7.40;99.90
17529;DHT22;8882;53.192;8.184;2023-10-19T20:29:37;7.50;99.90